sensor_id;sensor_type;location;lat;lon;timestamp;pressure;altitude;pressure_sealevel;temperature;humidity
6345;BME280;3205;42.666;23.264;2023-03-13T00:01:29;94631.00;;;-0.08;100.00
6345;BME280;3205;42.666;23.264;2023-03-13T00:03:56;94628.41;;;-0.18;100.00
6345;BME280;3205;42.666;23.264;2023-03-13T00:06:23;94622.19;;;-0.22;100.00
6345;BME280;3205;42.666;23.264;2023-03-13T00:08:50;94627.38;;;-0.22;100.00
6345;BME280;3205;42.666;23.264;2023-03-13T00:11:16;94626.31;;;-0.31;100.00
6345;BME280;3205;42.666;23.264;2023-03-13T00:13:42;94626.34;;;-0.41;100.00
6345;BME280;3205;42.666;23.264;2023-03-13T00:16:10;94631.00;;;-0.38;100.00
6345;BME280;3205;42.666;23.264;2023-03-13T00:18:38;94636.94;;;-0.37;100.00
6345;BME280;3205;42.666;23.264;2023-03-13T00:21:06;94636.94;;;-0.37;100.00
6345;BME280;3205;42.666;23.264;2023-03-13T00:23:33;94641.13;;;-0.26;100.00
6345;BME280;3205;42.666;23.264;2023-03-13T00:26:04;94641.91;;;-0.31;100.00
6345;BME280;3205;42.666;23.264;2023-03-13T00:28:33;94636.94;;;-0.37;100.00
6345;BME280;3205;42.666;23.264;2023-03-13T00:31:01;94644.75;;;-0.42;100.00
6345;BME280;3205;42.666;23.264;2023-03-13T00:33:27;94642.69;;;-0.45;100.00
6345;BME280;3205;42.666;23.264;2023-03-13T00:35:57;94641.13;;;-0.41;100.00
6345;BME280;3205;42.666;23.264;2023-03-13T00:38:23;94641.38;;;-0.48;100.00
6345;BME280;3205;42.666;23.264;2023-03-13T00:40:57;94635.13;;;-0.47;100.00
6345;BME280;3205;42.666;23.264;2023-03-13T00:43:23;94647.59;;;-0.49;100.00
6345;BME280;3205;42.666;23.264;2023-03-13T00:45:50;94642.13;;;-0.57;100.00
6345;BME280;3205;42.666;23.264;2023-03-13T00:48:16;94644.75;;;-0.52;100.00
6345;BME280;3205;42.666;23.264;2023-03-13T00:50:42;94636.97;;;-0.52;100.00
6345;BME280;3205;42.666;23.264;2023-03-13T00:53:09;94638.00;;;-0.53;100.00
6345;BME280;3205;42.666;23.264;2023-03-13T00:55:35;94637.72;;;-0.57;100.00
6345;BME280;3205;42.666;23.264;2023-03-13T00:58:01;94638.22;;;-0.65;100.00
6345;BME280;3205;42.666;23.264;2023-03-13T01:00:27;94641.31;;;-0.68;100.00
6345;BME280;3205;42.666;23.264;2023-03-13T01:02:53;94636.94;;;-0.67;100.00
6345;BME280;3205;42.666;23.264;2023-03-13T01:05:19;94636.94;;;-0.72;100.00
6345;BME280;3205;42.666;23.264;2023-03-13T01:07:45;94636.13;;;-0.73;100.00
6345;BME280;3205;42.666;23.264;2023-03-13T01:10:12;94629.16;;;-0.72;100.00
6345;BME280;3205;42.666;23.264;2023-03-13T01:12:38;94628.63;;;-0.69;100.00
6345;BME280;3205;42.666;23.264;2023-03-13T01:15:05;94622.38;;;-0.68;100.00
6345;BME280;3205;42.666;23.264;2023-03-13T01:17:32;94619.53;;;-0.72;100.00
6345;BME280;3205;42.666;23.264;2023-03-13T01:19:58;94624.44;;;-0.70;100.00
6345;BME280;3205;42.666;23.264;2023-03-13T01:22:24;94623.94;;;-0.72;100.00
6345;BME280;3205;42.666;23.264;2023-03-13T01:24:51;94639.25;;;-0.75;100.00
6345;BME280;3205;42.666;23.264;2023-03-13T01:27:19;94629.13;;;-0.77;100.00
6345;BME280;3205;42.666;23.264;2023-03-13T01:29:45;94641.09;;;-0.66;100.00
6345;BME280;3205;42.666;23.264;2023-03-13T01:32:11;94640.28;;;-0.67;100.00
6345;BME280;3205;42.666;23.264;2023-03-13T01:34:37;94645.47;;;-0.72;100.00
6345;BME280;3205;42.666;23.264;2023-03-13T01:37:04;94645.47;;;-0.72;100.00
6345;BME280;3205;42.666;23.264;2023-03-13T01:39:32;94646.25;;;-0.71;100.00
6345;BME280;3205;42.666;23.264;2023-03-13T01:41:58;94648.56;;;-0.75;100.00
6345;BME280;3205;42.666;23.264;2023-03-13T01:44:26;94643.91;;;-0.82;100.00
6345;BME280;3205;42.666;23.264;2023-03-13T01:46:52;94646.47;;;-0.87;100.00
6345;BME280;3205;42.666;23.264;2023-03-13T01:49:20;94649.34;;;-0.84;100.00
6345;BME280;3205;42.666;23.264;2023-03-13T01:51:50;94647.25;;;-0.87;100.00
6345;BME280;3205;42.666;23.264;2023-03-13T01:54:21;94641.59;;;-0.79;100.00
6345;BME280;3205;42.666;23.264;2023-03-13T01:56:51;94642.88;;;-0.76;100.00
6345;BME280;3205;42.666;23.264;2023-03-13T01:59:22;94648.31;;;-0.78;100.00
6345;BME280;3205;42.666;23.264;2023-03-13T02:01:50;94646.50;;;-0.82;100.00
6345;BME280;3205;42.666;23.264;2023-03-13T02:04:19;94646.72;;;-0.89;100.00
6345;BME280;3205;42.666;23.264;2023-03-13T02:06:49;94637.94;;;-0.83;100.00
6345;BME280;3205;42.666;23.264;2023-03-13T02:09:19;94636.34;;;-0.84;100.00
6345;BME280;3205;42.666;23.264;2023-03-13T02:11:49;94643.13;;;-0.83;100.00
6345;BME280;3205;42.666;23.264;2023-03-13T02:14:19;94647.53;;;-0.78;100.00
6345;BME280;3205;42.666;23.264;2023-03-13T02:16:47;94653.75;;;-0.84;100.00
6345;BME280;3205;42.666;23.264;2023-03-13T02:19:19;94654.78;;;-0.95;100.00
6345;BME280;3205;42.666;23.264;2023-03-13T02:21:52;94658.91;;;-0.94;100.00
6345;BME280;3205;42.666;23.264;2023-03-13T02:24:28;94661.28;;;-0.88;100.00
6345;BME280;3205;42.666;23.264;2023-03-13T02:26:57;94658.19;;;-0.85;100.00
6345;BME280;3205;42.666;23.264;2023-03-13T02:29:24;94661.28;;;-0.88;100.00
6345;BME280;3205;42.666;23.264;2023-03-13T02:31:51;94665.69;;;-0.88;100.00
6345;BME280;3205;42.666;23.264;2023-03-13T02:34:20;94676.34;;;-0.85;100.00
6345;BME280;3205;42.666;23.264;2023-03-13T02:36:48;94693.16;;;-0.92;100.00
6345;BME280;3205;42.666;23.264;2023-03-13T02:39:16;94683.81;;;-0.93;100.00
6345;BME280;3205;42.666;23.264;2023-03-13T02:41:44;94694.97;;;-0.93;100.00
6345;BME280;3205;42.666;23.264;2023-03-13T02:44:12;94693.69;;;-0.90;100.00
6345;BME280;3205;42.666;23.264;2023-03-13T02:46:45;94707.19;;;-0.88;100.00
6345;BME280;3205;42.666;23.264;2023-03-13T02:49:29;94705.38;;;-0.93;100.00
6345;BME280;3205;42.666;23.264;2023-03-13T02:51:57;94706.88;;;-1.02;100.00
6345;BME280;3205;42.666;23.264;2023-03-13T02:54:28;94712.06;;;-1.02;100.00
6345;BME280;3205;42.666;23.264;2023-03-13T02:56:57;94712.81;;;-1.01;100.00
6345;BME280;3205;42.666;23.264;2023-03-13T02:59:26;94707.38;;;-1.05;100.00
6345;BME280;3205;42.666;23.264;2023-03-13T03:01:52;94708.94;;;-1.04;100.00
6345;BME280;3205;42.666;23.264;2023-03-13T03:04:19;94712.06;;;-1.02;100.00
6345;BME280;3205;42.666;23.264;2023-03-13T03:06:48;94700.66;;;-1.06;100.00
6345;BME280;3205;42.666;23.264;2023-03-13T03:09:15;94703.44;;;-1.12;100.00
6345;BME280;3205;42.666;23.264;2023-03-13T03:11:41;94699.28;;;-1.13;100.00
6345;BME280;3205;42.666;23.264;2023-03-13T03:14:08;94709.94;;;-1.10;100.00
6345;BME280;3205;42.666;23.264;2023-03-13T03:16:36;94714.84;;;-1.13;100.00
6345;BME280;3205;42.666;23.264;2023-03-13T03:19:03;94707.56;;;-1.21;100.00
6345;BME280;3205;42.666;23.264;2023-03-13T03:21:29;94728.28;;;-1.21;100.00
6345;BME280;3205;42.666;23.264;2023-03-13T03:23:55;94738.66;;;-1.21;100.00
6345;BME280;3205;42.666;23.264;2023-03-13T03:26:21;94735.59;;;-1.18;100.00
6345;BME280;3205;42.666;23.264;2023-03-13T03:28:47;94743.81;;;-1.31;100.00
6345;BME280;3205;42.666;23.264;2023-03-13T03:31:14;94752.41;;;-1.26;100.00
6345;BME280;3205;42.666;23.264;2023-03-13T03:33:41;94740.19;;;-1.30;100.00
6345;BME280;3205;42.666;23.264;2023-03-13T03:36:09;94736.00;;;-1.36;100.00
6345;BME280;3205;42.666;23.264;2023-03-13T03:38:36;94740.91;;;-1.40;100.00
6345;BME280;3205;42.666;23.264;2023-03-13T03:41:04;94749.75;;;-1.36;100.00
6345;BME280;3205;42.666;23.264;2023-03-13T03:43:30;94753.34;;;-1.37;100.00
6345;BME280;3205;42.666;23.264;2023-03-13T03:45:56;94763.16;;;-1.44;100.00
6345;BME280;3205;42.666;23.264;2023-03-13T03:48:23;94769.63;;;-1.46;100.00
6345;BME280;3205;42.666;23.264;2023-03-13T03:50:49;94764.16;;;-1.49;100.00
6345;BME280;3205;42.666;23.264;2023-03-13T03:53:15;94772.34;;;-1.67;100.00
6345;BME280;3205;42.666;23.264;2023-03-13T03:55:42;94768.47;;;-1.65;100.00
6345;BME280;3205;42.666;23.264;2023-03-13T03:58:09;94765.16;;;-1.55;100.00
6345;BME280;3205;42.666;23.264;2023-03-13T04:00:35;94783.31;;;-1.55;100.00
6345;BME280;3205;42.666;23.264;2023-03-13T04:03:01;94772.38;;;-1.62;100.00
6345;BME280;3205;42.666;23.264;2023-03-13T04:05:27;94772.56;;;-1.69;100.00
6345;BME280;3205;42.666;23.264;2023-03-13T04:07:54;94779.53;;;-1.74;100.00
6345;BME280;3205;42.666;23.264;2023-03-13T04:10:20;94784.91;;;-1.81;100.00
6345;BME280;3205;42.666;23.264;2023-03-13T04:12:47;94795.50;;;-1.87;100.00
6345;BME280;3205;42.666;23.264;2023-03-13T04:15:13;94795.06;;;-1.74;100.00
6345;BME280;3205;42.666;23.264;2023-03-13T04:17:39;94799.69;;;-1.81;100.00
6345;BME280;3205;42.666;23.264;2023-03-13T04:20:06;94807.38;;;-1.86;100.00
6345;BME280;3205;42.666;23.264;2023-03-13T04:22:32;94806.44;;;-1.80;100.00
6345;BME280;3205;42.666;23.264;2023-03-13T04:25:01;94808.03;;;-1.74;100.00
6345;BME280;3205;42.666;23.264;2023-03-13T04:27:27;94813.16;;;-1.79;100.00
6345;BME280;3205;42.666;23.264;2023-03-13T04:29:53;94817.09;;;-1.77;100.00
6345;BME280;3205;42.666;23.264;2023-03-13T04:32:19;94822.84;;;-1.70;100.00
6345;BME280;3205;42.666;23.264;2023-03-13T04:34:45;94828.03;;;-1.70;100.00
6345;BME280;3205;42.666;23.264;2023-03-13T04:37:11;94832.41;;;-1.70;100.00
6345;BME280;3205;42.666;23.264;2023-03-13T04:39:38;94838.44;;;-1.65;100.00
6345;BME280;3205;42.666;23.264;2023-03-13T04:42:05;94844.66;;;-1.61;100.00
6345;BME280;3205;42.666;23.264;2023-03-13T04:44:31;94845.53;;;-1.50;100.00
6345;BME280;3205;42.666;23.264;2023-03-13T04:46:57;94844.44;;;-1.59;100.00
6345;BME280;3205;42.666;23.264;2023-03-13T04:49:23;94848.53;;;-1.63;100.00
6345;BME280;3205;42.666;23.264;2023-03-13T04:51:49;94846.44;;;-1.66;100.00
6345;BME280;3205;42.666;23.264;2023-03-13T04:54:15;94843.34;;;-1.63;100.00
6345;BME280;3205;42.666;23.264;2023-03-13T04:56:42;94844.50;;;-1.49;100.00
6345;BME280;3205;42.666;23.264;2023-03-13T04:59:10;94851.81;;;-1.47;100.00
6345;BME280;3205;42.666;23.264;2023-03-13T05:01:37;94851.38;;;-1.34;100.00
6345;BME280;3205;42.666;23.264;2023-03-13T05:04:03;94853.00;;;-1.23;100.00
6345;BME280;3205;42.666;23.264;2023-03-13T05:06:29;94851.03;;;-1.11;100.00
6345;BME280;3205;42.666;23.264;2023-03-13T05:08:56;94846.41;;;-1.04;100.00
6345;BME280;3205;42.666;23.264;2023-03-13T05:11:22;94845.94;;;-0.96;100.00
6345;BME280;3205;42.666;23.264;2023-03-13T05:13:48;94856.38;;;-0.86;100.00
6345;BME280;3205;42.666;23.264;2023-03-13T05:16:15;94866.03;;;-0.76;100.00
6345;BME280;3205;42.666;23.264;2023-03-13T05:18:41;94859.31;;;-0.73;100.00
6345;BME280;3205;42.666;23.264;2023-03-13T05:21:07;94867.66;;;-0.66;100.00
6345;BME280;3205;42.666;23.264;2023-03-13T05:23:33;94871.06;;;-0.60;100.00
6345;BME280;3205;42.666;23.264;2023-03-13T05:26:00;94879.16;;;-0.52;100.00
6345;BME280;3205;42.666;23.264;2023-03-13T05:28:26;94875.41;;;-0.24;100.00
6345;BME280;3205;42.666;23.264;2023-03-13T05:30:52;94877.69;;;0.93;100.00
6345;BME280;3205;42.666;23.264;2023-03-13T05:33:19;94883.75;;;3.96;100.00
6345;BME280;3205;42.666;23.264;2023-03-13T05:35:45;94892.13;;;7.01;100.00
6345;BME280;3205;42.666;23.264;2023-03-13T05:38:11;94903.84;;;9.19;95.76
6345;BME280;3205;42.666;23.264;2023-03-13T05:40:38;94903.75;;;11.18;64.23
6345;BME280;3205;42.666;23.264;2023-03-13T05:43:04;94910.22;;;12.98;52.99
6345;BME280;3205;42.666;23.264;2023-03-13T05:45:30;94914.91;;;14.53;46.96
6345;BME280;3205;42.666;23.264;2023-03-13T05:47:56;94907.22;;;15.88;43.84
6345;BME280;3205;42.666;23.264;2023-03-13T05:50:24;94919.09;;;16.99;39.94
6345;BME280;3205;42.666;23.264;2023-03-13T05:52:50;94916.56;;;17.32;38.34
6345;BME280;3205;42.666;23.264;2023-03-13T05:55:17;94918.09;;;17.91;37.03
6345;BME280;3205;42.666;23.264;2023-03-13T05:57:44;94914.03;;;18.41;36.09
6345;BME280;3205;42.666;23.264;2023-03-13T06:00:11;94927.94;;;19.50;34.63
6345;BME280;3205;42.666;23.264;2023-03-13T06:02:38;94920.53;;;19.94;32.58
6345;BME280;3205;42.666;23.264;2023-03-13T06:05:05;94926.84;;;20.74;32.44
6345;BME280;3205;42.666;23.264;2023-03-13T06:07:32;94930.72;;;21.25;31.49
6345;BME280;3205;42.666;23.264;2023-03-13T06:09:58;94929.19;;;21.21;30.65
6345;BME280;3205;42.666;23.264;2023-03-13T06:12:24;94929.19;;;21.28;30.52
6345;BME280;3205;42.666;23.264;2023-03-13T06:14:50;94924.94;;;21.30;30.37
6345;BME280;3205;42.666;23.264;2023-03-13T06:17:17;94923.75;;;21.69;29.13
6345;BME280;3205;42.666;23.264;2023-03-13T06:19:43;94933.28;;;20.24;29.66
6345;BME280;3205;42.666;23.264;2023-03-13T06:22:09;94935.72;;;19.12;30.23
6345;BME280;3205;42.666;23.264;2023-03-13T06:24:36;94924.50;;;18.56;31.11
6345;BME280;3205;42.666;23.264;2023-03-13T06:27:02;94930.63;;;18.53;31.47
6345;BME280;3205;42.666;23.264;2023-03-13T06:29:28;94936.66;;;18.90;31.07
6345;BME280;3205;42.666;23.264;2023-03-13T06:31:54;94932.78;;;18.84;31.11
6345;BME280;3205;42.666;23.264;2023-03-13T06:34:20;94920.38;;;18.26;31.35
6345;BME280;3205;42.666;23.264;2023-03-13T06:36:46;94915.22;;;17.19;32.67
6345;BME280;3205;42.666;23.264;2023-03-13T06:39:12;94906.03;;;17.20;32.60
6345;BME280;3205;42.666;23.264;2023-03-13T06:41:39;94907.81;;;16.61;33.13
6345;BME280;3205;42.666;23.264;2023-03-13T06:44:05;94912.84;;;15.83;34.34
6345;BME280;3205;42.666;23.264;2023-03-13T06:46:32;94918.88;;;15.08;35.40
6345;BME280;3205;42.666;23.264;2023-03-13T06:48:58;94925.34;;;14.30;36.68
6345;BME280;3205;42.666;23.264;2023-03-13T06:51:25;94923.28;;;14.39;36.68
6345;BME280;3205;42.666;23.264;2023-03-13T06:53:51;94922.72;;;14.95;36.26
6345;BME280;3205;42.666;23.264;2023-03-13T06:56:18;94919.53;;;15.74;35.04
6345;BME280;3205;42.666;23.264;2023-03-13T06:58:47;94912.94;;;15.68;34.76
6345;BME280;3205;42.666;23.264;2023-03-13T07:01:14;94918.00;;;16.78;33.75
6345;BME280;3205;42.666;23.264;2023-03-13T07:03:40;94913.81;;;16.32;33.68
6345;BME280;3205;42.666;23.264;2023-03-13T07:06:08;94909.03;;;14.93;35.13
6345;BME280;3205;42.666;23.264;2023-03-13T07:08:35;94914.28;;;15.24;35.27
6345;BME280;3205;42.666;23.264;2023-03-13T07:11:02;94916.38;;;17.21;33.45
6345;BME280;3205;42.666;23.264;2023-03-13T07:13:29;94920.69;;;19.04;32.54
6345;BME280;3205;42.666;23.264;2023-03-13T07:15:58;94915.53;;;19.96;30.39
6345;BME280;3205;42.666;23.264;2023-03-13T07:18:26;94914.16;;;21.41;30.43
6345;BME280;3205;42.666;23.264;2023-03-13T07:20:52;94914.28;;;22.23;28.43
6345;BME280;3205;42.666;23.264;2023-03-13T07:23:19;94909.84;;;21.88;27.59
6345;BME280;3205;42.666;23.264;2023-03-13T07:25:51;94906.09;;;21.55;27.97
6345;BME280;3205;42.666;23.264;2023-03-13T07:28:18;94908.94;;;22.12;27.37
6345;BME280;3205;42.666;23.264;2023-03-13T07:30:44;94911.97;;;22.25;27.86
6345;BME280;3205;42.666;23.264;2023-03-13T07:33:10;94901.06;;;21.60;27.81
6345;BME280;3205;42.666;23.264;2023-03-13T07:35:36;94903.66;;;21.88;27.70
6345;BME280;3205;42.666;23.264;2023-03-13T07:38:02;94906.09;;;21.55;27.65
6345;BME280;3205;42.666;23.264;2023-03-13T07:40:29;94906.16;;;21.02;28.16
6345;BME280;3205;42.666;23.264;2023-03-13T07:42:55;94922.91;;;19.38;28.97
6345;BME280;3205;42.666;23.264;2023-03-13T07:45:21;94919.97;;;20.77;28.67
6345;BME280;3205;42.666;23.264;2023-03-13T07:47:47;94908.78;;;21.62;27.54
6345;BME280;3205;42.666;23.264;2023-03-13T07:50:14;94912.84;;;22.01;26.62
6345;BME280;3205;42.666;23.264;2023-03-13T07:52:40;94911.47;;;21.48;26.99
6345;BME280;3205;42.666;23.264;2023-03-13T07:55:06;94906.97;;;22.27;26.96
6345;BME280;3205;42.666;23.264;2023-03-13T07:57:33;94906.50;;;22.96;25.57
6345;BME280;3205;42.666;23.264;2023-03-13T07:59:59;94898.00;;;22.50;26.31
6345;BME280;3205;42.666;23.264;2023-03-13T08:02:25;94901.53;;;21.03;26.67
6345;BME280;3205;42.666;23.264;2023-03-13T08:07:18;94896.00;;;21.83;26.36
6345;BME280;3205;42.666;23.264;2023-03-13T08:09:44;94894.78;;;22.69;26.31
6345;BME280;3205;42.666;23.264;2023-03-13T08:12:10;94901.19;;;22.25;25.85
6345;BME280;3205;42.666;23.264;2023-03-13T08:14:36;94899.22;;;22.39;26.44
6345;BME280;3205;42.666;23.264;2023-03-13T08:17:02;94897.94;;;23.15;25.74
6345;BME280;3205;42.666;23.264;2023-03-13T08:19:29;94905.38;;;21.09;26.53
6345;BME280;3205;42.666;23.264;2023-03-13T08:21:55;94889.25;;;20.78;27.52
6345;BME280;3205;42.666;23.264;2023-03-13T08:24:22;94899.56;;;21.38;27.28
6345;BME280;3205;42.666;23.264;2023-03-13T08:26:48;94903.69;;;22.66;26.62
6345;BME280;3205;42.666;23.264;2023-03-13T08:29:14;94899.88;;;23.11;26.36
6345;BME280;3205;42.666;23.264;2023-03-13T08:31:42;94900.31;;;22.45;26.56
6345;BME280;3205;42.666;23.264;2023-03-13T08:34:10;94902.28;;;23.83;26.07
6345;BME280;3205;42.666;23.264;2023-03-13T08:36:37;94907.91;;;25.30;24.91
6345;BME280;3205;42.666;23.264;2023-03-13T08:39:05;94902.91;;;26.13;24.40
6345;BME280;3205;42.666;23.264;2023-03-13T08:41:33;94898.78;;;26.95;23.60
6345;BME280;3205;42.666;23.264;2023-03-13T08:44:00;94896.41;;;27.61;22.89
6345;BME280;3205;42.666;23.264;2023-03-13T08:46:28;94899.56;;;28.16;22.77
6345;BME280;3205;42.666;23.264;2023-03-13T08:48:55;94899.88;;;28.18;22.53
6345;BME280;3205;42.666;23.264;2023-03-13T08:51:22;94890.53;;;29.09;21.73
6345;BME280;3205;42.666;23.264;2023-03-13T08:53:49;94892.69;;;29.39;21.44
6345;BME280;3205;42.666;23.264;2023-03-13T08:56:17;94891.56;;;28.37;21.67
6345;BME280;3205;42.666;23.264;2023-03-13T08:58:48;94902.94;;;27.47;21.86
6345;BME280;3205;42.666;23.264;2023-03-13T09:01:14;94902.69;;;26.43;22.84
6345;BME280;3205;42.666;23.264;2023-03-13T09:03:41;94892.03;;;26.52;23.02
6345;BME280;3205;42.666;23.264;2023-03-13T09:06:08;94891.38;;;25.48;24.43
6345;BME280;3205;42.666;23.264;2023-03-13T09:08:34;94883.06;;;26.35;23.34
6345;BME280;3205;42.666;23.264;2023-03-13T09:11:03;94898.59;;;26.86;23.15
6345;BME280;3205;42.666;23.264;2023-03-13T09:13:31;94893.47;;;27.07;23.36
6345;BME280;3205;42.666;23.264;2023-03-13T09:16:00;94885.38;;;26.88;22.75
6345;BME280;3205;42.666;23.264;2023-03-13T09:18:27;94880.41;;;27.34;22.72
6345;BME280;3205;42.666;23.264;2023-03-13T09:20:53;94878.00;;;25.60;23.93
6345;BME280;3205;42.666;23.264;2023-03-13T09:23:21;94888.63;;;25.70;23.88
6345;BME280;3205;42.666;23.264;2023-03-13T09:25:47;94881.69;;;25.69;23.61
6345;BME280;3205;42.666;23.264;2023-03-13T09:28:13;94889.38;;;24.27;24.44
6345;BME280;3205;42.666;23.264;2023-03-13T09:30:40;94888.44;;;20.74;27.54
6345;BME280;3205;42.666;23.264;2023-03-13T09:33:07;94890.75;;;20.58;27.53
6345;BME280;3205;42.666;23.264;2023-03-13T09:35:33;94885.75;;;20.46;28.29
6345;BME280;3205;42.666;23.264;2023-03-13T09:37:59;94896.28;;;19.09;29.48
6345;BME280;3205;42.666;23.264;2023-03-13T09:40:26;94890.06;;;17.49;30.71
6345;BME280;3205;42.666;23.264;2023-03-13T09:42:55;94884.84;;;16.79;32.73
6345;BME280;3205;42.666;23.264;2023-03-13T09:45:29;94882.91;;;17.02;32.13
6345;BME280;3205;42.666;23.264;2023-03-13T09:48:01;94874.56;;;18.31;31.39
6345;BME280;3205;42.666;23.264;2023-03-13T09:50:32;94867.94;;;17.85;31.44
6345;BME280;3205;42.666;23.264;2023-03-13T09:53:03;94873.72;;;18.23;31.45
6345;BME280;3205;42.666;23.264;2023-03-13T09:55:32;94870.03;;;17.66;32.09
6345;BME280;3205;42.666;23.264;2023-03-13T09:58:04;94872.31;;;15.93;33.77
6345;BME280;3205;42.666;23.264;2023-03-13T10:00:34;94870.69;;;14.64;35.32
6345;BME280;3205;42.666;23.264;2023-03-13T10:03:06;94868.22;;;14.89;36.55
6345;BME280;3205;42.666;23.264;2023-03-13T10:05:41;94868.56;;;14.54;36.48
6345;BME280;3205;42.666;23.264;2023-03-13T10:08:14;94856.84;;;14.74;37.51
6345;BME280;3205;42.666;23.264;2023-03-13T10:10:43;94865.31;;;14.29;36.88
6345;BME280;3205;42.666;23.264;2023-03-13T10:13:16;94859.22;;;13.43;37.71
6345;BME280;3205;42.666;23.264;2023-03-13T10:15:47;94847.91;;;13.19;39.05
6345;BME280;3205;42.666;23.264;2023-03-13T10:18:17;94854.50;;;12.98;39.40
6345;BME280;3205;42.666;23.264;2023-03-13T10:20:47;94843.88;;;12.98;39.60
6345;BME280;3205;42.666;23.264;2023-03-13T10:23:19;94827.69;;;12.28;40.84
6345;BME280;3205;42.666;23.264;2023-03-13T10:25:46;94832.28;;;11.95;41.70
6345;BME280;3205;42.666;23.264;2023-03-13T10:28:13;94829.75;;;11.75;42.36
6345;BME280;3205;42.666;23.264;2023-03-13T10:30:43;94825.81;;;11.28;43.18
6345;BME280;3205;42.666;23.264;2023-03-13T10:33:19;94816.59;;;11.34;43.56
6345;BME280;3205;42.666;23.264;2023-03-13T10:35:59;94809.75;;;11.33;44.05
6345;BME280;3205;42.666;23.264;2023-03-13T10:38:25;94812.28;;;11.41;43.94
6345;BME280;3205;42.666;23.264;2023-03-13T10:40:55;94800.47;;;11.59;44.01
6345;BME280;3205;42.666;23.264;2023-03-13T10:43:24;94800.25;;;11.32;43.78
6345;BME280;3205;42.666;23.264;2023-03-13T10:45:52;94798.81;;;11.02;44.72
6345;BME280;3205;42.666;23.264;2023-03-13T10:48:20;94793.66;;;10.65;45.51
6345;BME280;3205;42.666;23.264;2023-03-13T10:50:48;94793.03;;;10.68;45.96
6345;BME280;3205;42.666;23.264;2023-03-13T10:53:24;94794.84;;;10.76;45.87
6345;BME280;3205;42.666;23.264;2023-03-13T10:55:52;94802.22;;;10.41;46.04
6345;BME280;3205;42.666;23.264;2023-03-13T10:58:21;94790.81;;;10.29;47.11
6345;BME280;3205;42.666;23.264;2023-03-13T11:00:48;94795.44;;;10.81;46.85
6345;BME280;3205;42.666;23.264;2023-03-13T11:03:16;94784.81;;;11.02;46.51
6345;BME280;3205;42.666;23.264;2023-03-13T11:05:43;94783.59;;;10.79;46.23
6345;BME280;3205;42.666;23.264;2023-03-13T11:08:22;94777.53;;;10.58;46.51
6345;BME280;3205;42.666;23.264;2023-03-13T11:10:54;94768.19;;;10.81;47.56
6345;BME280;3205;42.666;23.264;2023-03-13T11:13:29;94762.78;;;10.98;46.88
6345;BME280;3205;42.666;23.264;2023-03-13T11:15:58;94766.84;;;10.95;46.42
6345;BME280;3205;42.666;23.264;2023-03-13T11:18:31;94756.72;;;11.09;46.36
6345;BME280;3205;42.666;23.264;2023-03-13T11:21:00;94751.50;;;11.21;47.20
6345;BME280;3205;42.666;23.264;2023-03-13T11:23:31;94749.88;;;11.40;46.58
6345;BME280;3205;42.666;23.264;2023-03-13T11:26:04;94747.09;;;11.37;46.13
6345;BME280;3205;42.666;23.264;2023-03-13T11:28:44;94746.06;;;11.17;46.48
6345;BME280;3205;42.666;23.264;2023-03-13T11:31:14;94744.50;;;10.84;46.85
6345;BME280;3205;42.666;23.264;2023-03-13T11:33:47;94740.66;;;10.61;47.66
6345;BME280;3205;42.666;23.264;2023-03-13T11:36:26;94737.06;;;10.45;48.59
6345;BME280;3205;42.666;23.264;2023-03-13T11:39:04;94723.06;;;10.45;48.31
6345;BME280;3205;42.666;23.264;2023-03-13T11:41:43;94726.31;;;10.71;48.60
6345;BME280;3205;42.666;23.264;2023-03-13T11:44:26;94727.56;;;10.85;47.97
6345;BME280;3205;42.666;23.264;2023-03-13T11:47:13;94722.41;;;10.68;47.93
6345;BME280;3205;42.666;23.264;2023-03-13T11:50:04;94718.16;;;10.55;48.24
6345;BME280;3205;42.666;23.264;2023-03-13T11:52:42;94705.88;;;10.59;48.62
6345;BME280;3205;42.666;23.264;2023-03-13T11:55:21;94701.38;;;10.72;49.24
6345;BME280;3205;42.666;23.264;2023-03-13T11:58:00;94701.25;;;10.89;48.42
6345;BME280;3205;42.666;23.264;2023-03-13T12:00:33;94693.94;;;10.86;47.88
6345;BME280;3205;42.666;23.264;2023-03-13T12:03:05;94694.38;;;10.55;47.62
6345;BME280;3205;42.666;23.264;2023-03-13T12:05:39;94685.78;;;10.46;48.42
6345;BME280;3205;42.666;23.264;2023-03-13T12:08:11;94687.38;;;10.39;48.64
6345;BME280;3205;42.666;23.264;2023-03-13T12:10:43;94675.19;;;10.46;49.40
6345;BME280;3205;42.666;23.264;2023-03-13T12:13:16;94673.91;;;10.32;48.78
6345;BME280;3205;42.666;23.264;2023-03-13T12:15:47;94662.44;;;10.08;49.81
6345;BME280;3205;42.666;23.264;2023-03-13T12:18:17;94668.44;;;10.17;49.62
6345;BME280;3205;42.666;23.264;2023-03-13T12:20:51;94673.28;;;10.35;49.89
6345;BME280;3205;42.666;23.264;2023-03-13T12:23:25;94666.97;;;10.60;49.63
6345;BME280;3205;42.666;23.264;2023-03-13T12:25:57;94667.34;;;10.70;49.35
6345;BME280;3205;42.666;23.264;2023-03-13T12:28:30;94657.81;;;10.90;50.10
6345;BME280;3205;42.666;23.264;2023-03-13T12:31:08;94661.28;;;11.14;48.65
6345;BME280;3205;42.666;23.264;2023-03-13T12:33:40;94661.72;;;11.04;48.22
6345;BME280;3205;42.666;23.264;2023-03-13T12:36:12;94661.56;;;10.89;47.64
6345;BME280;3205;42.666;23.264;2023-03-13T12:38:43;94655.31;;;10.61;48.52
6345;BME280;3205;42.666;23.264;2023-03-13T12:41:18;94651.81;;;10.69;49.40
6345;BME280;3205;42.666;23.264;2023-03-13T12:43:48;94648.84;;;10.70;48.99
6345;BME280;3205;42.666;23.264;2023-03-13T12:46:31;94661.66;;;10.80;48.19
6345;BME280;3205;42.666;23.264;2023-03-13T12:52:13;94656.91;;;10.86;49.09
6345;BME280;3205;42.666;23.264;2023-03-13T12:54:55;94655.75;;;10.95;48.40
6345;BME280;3205;42.666;23.264;2023-03-13T12:57:56;94653.88;;;10.96;47.73
6345;BME280;3205;42.666;23.264;2023-03-13T13:00:27;94654.09;;;10.91;48.19
6345;BME280;3205;42.666;23.264;2023-03-13T13:03:05;94654.22;;;10.94;48.62
6345;BME280;3205;42.666;23.264;2023-03-13T13:05:35;94663.91;;;11.02;48.07
6345;BME280;3205;42.666;23.264;2023-03-13T13:08:01;94664.22;;;11.01;47.12
6345;BME280;3205;42.666;23.264;2023-03-13T13:10:28;94661.13;;;10.99;47.87
6345;BME280;3205;42.666;23.264;2023-03-13T13:13:24;94653.66;;;11.01;48.68
6345;BME280;3205;42.666;23.264;2023-03-13T13:15:59;94651.03;;;11.12;48.92
6345;BME280;3205;42.666;23.264;2023-03-13T13:18:27;94653.47;;;11.17;48.03
6345;BME280;3205;42.666;23.264;2023-03-13T13:21:19;94644.75;;;11.17;47.60